Cement Creek, Colorado
Current Conditions -  °F | °C
As of 5:53 PM on Saturday 22 Nov 2014 (Local Time) from KASE Reporting Station
Haze Haze  
Wind Chill: 34°   Ceiling: 3700
Heat Index: 34°   Visibility: 6mi
Dew Point: 28°   Wind: 3mph
Humidity: 79%   Direction: NA
Pressure: 29.82"   Gusts: NA
Location:  38.8937°N, 106.919°W
Report Text: KASE 230053Z VRB03KT 6SM HZ OVC037 01/M02 A2982 RMK AO2 RAE24SNB24E34 SLP089 P0000 T00111022
Loading
Personal Weather Stations






























Interactive Weather Map New forecast layout! Learn more

10-Day Weather Forecast

Advertisements
Track Severe Weather on mobile